Everglades, Florida
Current Conditions -  °F | °C
As of 2:35 PM on Friday 31 Oct 2014 (Local Time) from KMKY Reporting Station
Clear Clear  
Wind Chill: 81°   Ceiling: Unl
Heat Index: 83°   Visibility: 10mi
Dew Point: 66°   Wind: 15mph
Humidity: 61%   Direction: 310°NW
Pressure: 29.82"   Gusts: 22mph
Location:  25.8583°N, 81.3702°W
Report Text: KMKY 311835Z 31013G19KT 10SM CLR 27/19 A2982 RMK AO1
Loading
Personal Weather Stations






























Interactive Weather Map
Tropical Storm Tracking
New forecast layout! Learn more

10-Day Weather Forecast

Advertisements
Track Severe Weather on mobile